sensor_id;sensor_type;location;lat;lon;timestamp;P1;durP1;ratioP1;P2;durP2;ratioP2
10191;SDS011;17580;50.850;4.504;2022-09-09T00:01:37;1.93;;;1.00;;
10191;SDS011;17580;50.850;4.504;2022-09-09T00:04:18;0.93;;;0.93;;
10191;SDS011;17580;50.850;4.504;2022-09-09T00:06:56;1.10;;;1.00;;
10191;SDS011;17580;50.850;4.504;2022-09-09T00:09:29;0.80;;;0.80;;
10191;SDS011;17580;50.850;4.504;2022-09-09T00:12:05;1.43;;;0.90;;
10191;SDS011;17580;50.850;4.504;2022-09-09T00:14:37;1.53;;;1.43;;
10191;SDS011;17580;50.850;4.504;2022-09-09T00:17:12;2.10;;;1.43;;
10191;SDS011;17580;50.850;4.504;2022-09-09T00:19:44;1.83;;;1.13;;
10191;SDS011;17580;50.850;4.504;2022-09-09T00:22:18;1.80;;;0.97;;
10191;SDS011;17580;50.850;4.504;2022-09-09T00:24:48;2.43;;;1.30;;
10191;SDS011;17580;50.850;4.504;2022-09-09T00:27:22;1.80;;;1.33;;
10191;SDS011;17580;50.850;4.504;2022-09-09T00:29:54;0.77;;;0.70;;
10191;SDS011;17580;50.850;4.504;2022-09-09T00:32:28;2.07;;;1.00;;
10191;SDS011;17580;50.850;4.504;2022-09-09T00:34:58;1.93;;;1.10;;
10191;SDS011;17580;50.850;4.504;2022-09-09T00:37:29;3.13;;;1.67;;
10191;SDS011;17580;50.850;4.504;2022-09-09T00:40:00;2.07;;;1.00;;
10191;SDS011;17580;50.850;4.504;2022-09-09T00:42:33;0.87;;;0.80;;
10191;SDS011;17580;50.850;4.504;2022-09-09T00:45:12;1.10;;;1.00;;
10191;SDS011;17580;50.850;4.504;2022-09-09T00:47:49;2.33;;;1.30;;
10191;SDS011;17580;50.850;4.504;2022-09-09T00:50:28;1.20;;;1.10;;
10191;SDS011;17580;50.850;4.504;2022-09-09T00:53:11;3.27;;;0.97;;
10191;SDS011;17580;50.850;4.504;2022-09-09T00:55:47;2.73;;;1.43;;
10191;SDS011;17580;50.850;4.504;2022-09-09T00:58:18;2.70;;;1.10;;
10191;SDS011;17580;50.850;4.504;2022-09-09T01:00:46;1.63;;;1.00;;
10191;SDS011;17580;50.850;4.504;2022-09-09T01:03:21;1.00;;;1.00;;
10191;SDS011;17580;50.850;4.504;2022-09-09T01:05:56;2.13;;;1.00;;
10191;SDS011;17580;50.850;4.504;2022-09-09T01:09:00;1.23;;;1.13;;
10191;SDS011;17580;50.850;4.504;2022-09-09T01:11:38;1.40;;;1.27;;
10191;SDS011;17580;50.850;4.504;2022-09-09T01:14:16;1.83;;;1.00;;
10191;SDS011;17580;50.850;4.504;2022-09-09T01:16:51;4.77;;;1.17;;
10191;SDS011;17580;50.850;4.504;2022-09-09T01:19:24;1.63;;;1.10;;
10191;SDS011;17580;50.850;4.504;2022-09-09T01:22:06;2.33;;;1.17;;
10191;SDS011;17580;50.850;4.504;2022-09-09T01:24:40;2.03;;;1.20;;
10191;SDS011;17580;50.850;4.504;2022-09-09T01:27:19;1.13;;;1.10;;
10191;SDS011;17580;50.850;4.504;2022-09-09T01:29:47;1.27;;;1.17;;
10191;SDS011;17580;50.850;4.504;2022-09-09T01:35:07;1.10;;;1.10;;
10191;SDS011;17580;50.850;4.504;2022-09-09T01:37:38;4.23;;;1.10;;
10191;SDS011;17580;50.850;4.504;2022-09-09T01:40:05;1.70;;;1.10;;
10191;SDS011;17580;50.850;4.504;2022-09-09T01:42:34;2.30;;;1.63;;
10191;SDS011;17580;50.850;4.504;2022-09-09T01:45:02;2.57;;;1.37;;
10191;SDS011;17580;50.850;4.504;2022-09-09T01:47:30;1.17;;;1.07;;
10191;SDS011;17580;50.850;4.504;2022-09-09T01:49:57;2.37;;;1.10;;
10191;SDS011;17580;50.850;4.504;2022-09-09T01:52:25;5.57;;;1.73;;
10191;SDS011;17580;50.850;4.504;2022-09-09T01:54:52;3.90;;;1.10;;
10191;SDS011;17580;50.850;4.504;2022-09-09T01:57:20;3.60;;;1.60;;
10191;SDS011;17580;50.850;4.504;2022-09-09T02:00:00;3.00;;;1.40;;
10191;SDS011;17580;50.850;4.504;2022-09-09T02:02:32;2.90;;;1.30;;
10191;SDS011;17580;50.850;4.504;2022-09-09T02:05:06;4.13;;;1.53;;
10191;SDS011;17580;50.850;4.504;2022-09-09T02:07:43;3.60;;;1.40;;
10191;SDS011;17580;50.850;4.504;2022-09-09T02:10:15;3.90;;;1.50;;
10191;SDS011;17580;50.850;4.504;2022-09-09T02:12:46;4.67;;;1.87;;
10191;SDS011;17580;50.850;4.504;2022-09-09T02:15:20;6.97;;;1.73;;
10191;SDS011;17580;50.850;4.504;2022-09-09T02:17:52;2.07;;;1.40;;
10191;SDS011;17580;50.850;4.504;2022-09-09T02:20:23;4.40;;;1.80;;
10191;SDS011;17580;50.850;4.504;2022-09-09T02:22:51;3.43;;;1.53;;
10191;SDS011;17580;50.850;4.504;2022-09-09T02:25:21;2.90;;;1.13;;
10191;SDS011;17580;50.850;4.504;2022-09-09T02:27:50;3.00;;;1.70;;
10191;SDS011;17580;50.850;4.504;2022-09-09T02:30:19;2.00;;;1.43;;
10191;SDS011;17580;50.850;4.504;2022-09-09T02:32:47;2.80;;;1.30;;
10191;SDS011;17580;50.850;4.504;2022-09-09T02:35:18;2.27;;;1.37;;
10191;SDS011;17580;50.850;4.504;2022-09-09T02:37:47;1.60;;;1.37;;
10191;SDS011;17580;50.850;4.504;2022-09-09T02:40:16;7.30;;;1.60;;
10191;SDS011;17580;50.850;4.504;2022-09-09T02:42:44;2.60;;;1.40;;
10191;SDS011;17580;50.850;4.504;2022-09-09T02:45:12;2.17;;;1.20;;
10191;SDS011;17580;50.850;4.504;2022-09-09T02:47:44;1.73;;;1.30;;
10191;SDS011;17580;50.850;4.504;2022-09-09T02:50:17;5.00;;;1.80;;
10191;SDS011;17580;50.850;4.504;2022-09-09T02:52:54;3.63;;;1.53;;
10191;SDS011;17580;50.850;4.504;2022-09-09T02:55:34;3.23;;;1.47;;
10191;SDS011;17580;50.850;4.504;2022-09-09T02:58:08;3.00;;;1.30;;
10191;SDS011;17580;50.850;4.504;2022-09-09T03:00:37;4.53;;;1.27;;
10191;SDS011;17580;50.850;4.504;2022-09-09T03:03:07;1.70;;;1.47;;
10191;SDS011;17580;50.850;4.504;2022-09-09T03:05:35;4.27;;;1.47;;
10191;SDS011;17580;50.850;4.504;2022-09-09T03:08:02;1.17;;;1.10;;
10191;SDS011;17580;50.850;4.504;2022-09-09T03:10:30;5.37;;;1.43;;
10191;SDS011;17580;50.850;4.504;2022-09-09T03:12:57;3.43;;;1.30;;
10191;SDS011;17580;50.850;4.504;2022-09-09T03:15:24;2.07;;;1.20;;
10191;SDS011;17580;50.850;4.504;2022-09-09T03:17:54;1.20;;;1.10;;
10191;SDS011;17580;50.850;4.504;2022-09-09T03:20:23;3.07;;;1.23;;
10191;SDS011;17580;50.850;4.504;2022-09-09T03:22:51;2.07;;;1.50;;
10191;SDS011;17580;50.850;4.504;2022-09-09T03:25:18;3.17;;;1.60;;
10191;SDS011;17580;50.850;4.504;2022-09-09T03:27:46;4.07;;;1.80;;
10191;SDS011;17580;50.850;4.504;2022-09-09T03:30:13;3.87;;;1.50;;
10191;SDS011;17580;50.850;4.504;2022-09-09T03:32:40;3.40;;;1.70;;
10191;SDS011;17580;50.850;4.504;2022-09-09T03:35:07;2.40;;;1.60;;
10191;SDS011;17580;50.850;4.504;2022-09-09T03:37:36;5.07;;;2.23;;
10191;SDS011;17580;50.850;4.504;2022-09-09T03:40:04;3.57;;;1.27;;
10191;SDS011;17580;50.850;4.504;2022-09-09T03:42:32;4.50;;;1.50;;
10191;SDS011;17580;50.850;4.504;2022-09-09T03:44:58;2.07;;;1.20;;
10191;SDS011;17580;50.850;4.504;2022-09-09T03:47:25;1.77;;;1.47;;
10191;SDS011;17580;50.850;4.504;2022-09-09T03:49:52;4.63;;;2.20;;
10191;SDS011;17580;50.850;4.504;2022-09-09T03:52:19;3.17;;;1.40;;
10191;SDS011;17580;50.850;4.504;2022-09-09T03:54:48;2.30;;;1.70;;
10191;SDS011;17580;50.850;4.504;2022-09-09T03:57:15;3.10;;;1.50;;
10191;SDS011;17580;50.850;4.504;2022-09-09T03:59:42;5.27;;;2.00;;
10191;SDS011;17580;50.850;4.504;2022-09-09T04:02:09;4.03;;;1.70;;
10191;SDS011;17580;50.850;4.504;2022-09-09T04:04:36;5.30;;;1.60;;
10191;SDS011;17580;50.850;4.504;2022-09-09T04:07:03;3.00;;;1.87;;
10191;SDS011;17580;50.850;4.504;2022-09-09T04:09:31;7.23;;;1.73;;
10191;SDS011;17580;50.850;4.504;2022-09-09T04:12:01;3.20;;;1.43;;
10191;SDS011;17580;50.850;4.504;2022-09-09T04:14:29;5.70;;;2.03;;
10191;SDS011;17580;50.850;4.504;2022-09-09T04:16:56;7.97;;;1.77;;
10191;SDS011;17580;50.850;4.504;2022-09-09T04:19:24;3.23;;;1.90;;
10191;SDS011;17580;50.850;4.504;2022-09-09T04:21:51;6.17;;;1.73;;
10191;SDS011;17580;50.850;4.504;2022-09-09T04:24:18;5.43;;;1.67;;
10191;SDS011;17580;50.850;4.504;2022-09-09T04:26:46;4.73;;;2.03;;
10191;SDS011;17580;50.850;4.504;2022-09-09T04:29:15;5.23;;;1.80;;
10191;SDS011;17580;50.850;4.504;2022-09-09T04:31:42;5.30;;;1.93;;
10191;SDS011;17580;50.850;4.504;2022-09-09T04:34:09;8.60;;;2.17;;
10191;SDS011;17580;50.850;4.504;2022-09-09T04:36:36;4.53;;;1.90;;
10191;SDS011;17580;50.850;4.504;2022-09-09T04:39:04;3.77;;;1.90;;
10191;SDS011;17580;50.850;4.504;2022-09-09T04:41:31;11.53;;;2.77;;
10191;SDS011;17580;50.850;4.504;2022-09-09T04:43:58;6.60;;;2.30;;
10191;SDS011;17580;50.850;4.504;2022-09-09T04:46:27;6.03;;;2.20;;
10191;SDS011;17580;50.850;4.504;2022-09-09T04:48:54;5.07;;;2.47;;
10191;SDS011;17580;50.850;4.504;2022-09-09T04:51:21;4.17;;;1.90;;
10191;SDS011;17580;50.850;4.504;2022-09-09T04:53:48;4.40;;;2.00;;
10191;SDS011;17580;50.850;4.504;2022-09-09T04:56:16;4.87;;;2.00;;
10191;SDS011;17580;50.850;4.504;2022-09-09T04:58:44;5.87;;;1.90;;
10191;SDS011;17580;50.850;4.504;2022-09-09T05:01:12;6.93;;;1.87;;
10191;SDS011;17580;50.850;4.504;2022-09-09T05:03:41;5.60;;;2.00;;
10191;SDS011;17580;50.850;4.504;2022-09-09T05:06:10;8.00;;;2.13;;
10191;SDS011;17580;50.850;4.504;2022-09-09T05:08:39;5.20;;;1.80;;
10191;SDS011;17580;50.850;4.504;2022-09-09T05:11:13;6.97;;;2.10;;
10191;SDS011;17580;50.850;4.504;2022-09-09T05:13:41;4.10;;;1.90;;
10191;SDS011;17580;50.850;4.504;2022-09-09T05:16:08;7.90;;;2.57;;
10191;SDS011;17580;50.850;4.504;2022-09-09T05:18:36;4.63;;;1.90;;
10191;SDS011;17580;50.850;4.504;2022-09-09T05:21:04;12.67;;;2.93;;
10191;SDS011;17580;50.850;4.504;2022-09-09T05:23:32;6.53;;;2.57;;
10191;SDS011;17580;50.850;4.504;2022-09-09T05:25:59;7.00;;;2.20;;
10191;SDS011;17580;50.850;4.504;2022-09-09T05:28:26;5.13;;;2.10;;
10191;SDS011;17580;50.850;4.504;2022-09-09T05:30:57;4.87;;;2.77;;
10191;SDS011;17580;50.850;4.504;2022-09-09T05:33:25;6.10;;;1.90;;
10191;SDS011;17580;50.850;4.504;2022-09-09T05:35:57;6.17;;;2.10;;
10191;SDS011;17580;50.850;4.504;2022-09-09T05:38:25;7.07;;;2.17;;
10191;SDS011;17580;50.850;4.504;2022-09-09T05:40:53;4.07;;;2.23;;
10191;SDS011;17580;50.850;4.504;2022-09-09T05:43:21;7.53;;;3.33;;
10191;SDS011;17580;50.850;4.504;2022-09-09T05:45:48;4.17;;;2.10;;
10191;SDS011;17580;50.850;4.504;2022-09-09T05:48:27;6.17;;;2.27;;
10191;SDS011;17580;50.850;4.504;2022-09-09T05:50:54;9.43;;;2.60;;
10191;SDS011;17580;50.850;4.504;2022-09-09T05:53:22;5.83;;;2.77;;
10191;SDS011;17580;50.850;4.504;2022-09-09T05:55:57;3.83;;;2.17;;
10191;SDS011;17580;50.850;4.504;2022-09-09T05:58:25;4.33;;;2.40;;
10191;SDS011;17580;50.850;4.504;2022-09-09T06:00:52;7.30;;;2.43;;
10191;SDS011;17580;50.850;4.504;2022-09-09T06:03:20;4.30;;;1.93;;
10191;SDS011;17580;50.850;4.504;2022-09-09T06:05:56;7.07;;;2.93;;
10191;SDS011;17580;50.850;4.504;2022-09-09T06:08:23;6.20;;;2.70;;
10191;SDS011;17580;50.850;4.504;2022-09-09T06:10:52;7.60;;;2.30;;
10191;SDS011;17580;50.850;4.504;2022-09-09T06:13:19;8.67;;;2.43;;
10191;SDS011;17580;50.850;4.504;2022-09-09T06:15:49;4.87;;;2.20;;
10191;SDS011;17580;50.850;4.504;2022-09-09T06:18:17;6.97;;;2.57;;
10191;SDS011;17580;50.850;4.504;2022-09-09T06:20:52;8.43;;;2.80;;
10191;SDS011;17580;50.850;4.504;2022-09-09T06:23:20;9.00;;;2.80;;
10191;SDS011;17580;50.850;4.504;2022-09-09T06:25:47;7.60;;;2.27;;
10191;SDS011;17580;50.850;4.504;2022-09-09T06:28:17;6.27;;;1.90;;
10191;SDS011;17580;50.850;4.504;2022-09-09T06:30:44;3.83;;;2.07;;
10191;SDS011;17580;50.850;4.504;2022-09-09T06:33:12;5.03;;;1.80;;
10191;SDS011;17580;50.850;4.504;2022-09-09T06:35:39;6.47;;;2.23;;
10191;SDS011;17580;50.850;4.504;2022-09-09T06:38:06;10.43;;;2.30;;
10191;SDS011;17580;50.850;4.504;2022-09-09T06:40:33;5.70;;;1.80;;
10191;SDS011;17580;50.850;4.504;2022-09-09T06:43:00;5.10;;;2.17;;
10191;SDS011;17580;50.850;4.504;2022-09-09T06:45:29;6.90;;;2.13;;
10191;SDS011;17580;50.850;4.504;2022-09-09T06:47:56;4.27;;;2.33;;
10191;SDS011;17580;50.850;4.504;2022-09-09T06:50:23;4.70;;;2.70;;
10191;SDS011;17580;50.850;4.504;2022-09-09T06:52:50;6.17;;;1.80;;
10191;SDS011;17580;50.850;4.504;2022-09-09T06:55:17;6.00;;;2.00;;
10191;SDS011;17580;50.850;4.504;2022-09-09T06:57:44;5.23;;;2.00;;
10191;SDS011;17580;50.850;4.504;2022-09-09T07:00:11;3.03;;;1.87;;
10191;SDS011;17580;50.850;4.504;2022-09-09T07:02:41;10.97;;;2.33;;
10191;SDS011;17580;50.850;4.504;2022-09-09T07:05:08;8.03;;;2.30;;
10191;SDS011;17580;50.850;4.504;2022-09-09T07:07:35;6.60;;;2.50;;
10191;SDS011;17580;50.850;4.504;2022-09-09T07:10:03;5.03;;;1.90;;
10191;SDS011;17580;50.850;4.504;2022-09-09T07:12:30;5.70;;;2.50;;
10191;SDS011;17580;50.850;4.504;2022-09-09T07:14:57;8.13;;;2.33;;
10191;SDS011;17580;50.850;4.504;2022-09-09T07:17:25;5.33;;;2.07;;
10191;SDS011;17580;50.850;4.504;2022-09-09T07:19:54;5.60;;;2.23;;
10191;SDS011;17580;50.850;4.504;2022-09-09T07:22:21;7.07;;;2.07;;
10191;SDS011;17580;50.850;4.504;2022-09-09T07:24:49;5.20;;;2.20;;
10191;SDS011;17580;50.850;4.504;2022-09-09T07:27:16;6.10;;;2.43;;
10191;SDS011;17580;50.850;4.504;2022-09-09T07:29:43;6.80;;;2.93;;
10191;SDS011;17580;50.850;4.504;2022-09-09T07:32:10;4.17;;;2.20;;
10191;SDS011;17580;50.850;4.504;2022-09-09T07:34:37;3.43;;;1.93;;
10191;SDS011;17580;50.850;4.504;2022-09-09T07:37:06;4.33;;;1.87;;
10191;SDS011;17580;50.850;4.504;2022-09-09T07:39:36;6.60;;;2.80;;
10191;SDS011;17580;50.850;4.504;2022-09-09T07:42:03;6.30;;;2.37;;
10191;SDS011;17580;50.850;4.504;2022-09-09T07:44:31;9.13;;;2.53;;
10191;SDS011;17580;50.850;4.504;2022-09-09T07:47:00;5.57;;;1.97;;
10191;SDS011;17580;50.850;4.504;2022-09-09T07:49:27;4.70;;;1.53;;
10191;SDS011;17580;50.850;4.504;2022-09-09T07:51:54;6.13;;;2.40;;
10191;SDS011;17580;50.850;4.504;2022-09-09T07:54:22;5.00;;;2.93;;
10191;SDS011;17580;50.850;4.504;2022-09-09T07:56:49;6.30;;;2.07;;
10191;SDS011;17580;50.850;4.504;2022-09-09T07:59:17;5.03;;;2.37;;
10191;SDS011;17580;50.850;4.504;2022-09-09T08:01:45;5.63;;;2.33;;
10191;SDS011;17580;50.850;4.504;2022-09-09T08:04:14;4.33;;;2.07;;
10191;SDS011;17580;50.850;4.504;2022-09-09T08:06:43;4.87;;;1.70;;
10191;SDS011;17580;50.850;4.504;2022-09-09T08:09:12;6.40;;;2.50;;
10191;SDS011;17580;50.850;4.504;2022-09-09T08:11:42;2.77;;;1.73;;
10191;SDS011;17580;50.850;4.504;2022-09-09T08:14:09;3.47;;;2.07;;
10191;SDS011;17580;50.850;4.504;2022-09-09T08:16:37;3.63;;;2.20;;
10191;SDS011;17580;50.850;4.504;2022-09-09T08:19:06;6.07;;;2.20;;
10191;SDS011;17580;50.850;4.504;2022-09-09T08:21:35;6.83;;;2.20;;
10191;SDS011;17580;50.850;4.504;2022-09-09T08:24:04;6.67;;;2.63;;
10191;SDS011;17580;50.850;4.504;2022-09-09T08:26:32;5.13;;;2.20;;
10191;SDS011;17580;50.850;4.504;2022-09-09T08:29:02;2.50;;;2.00;;
10191;SDS011;17580;50.850;4.504;2022-09-09T08:31:31;6.63;;;2.30;;
10191;SDS011;17580;50.850;4.504;2022-09-09T08:34:00;6.70;;;2.80;;
10191;SDS011;17580;50.850;4.504;2022-09-09T08:36:29;5.83;;;2.67;;
10191;SDS011;17580;50.850;4.504;2022-09-09T08:38:58;3.57;;;1.67;;
10191;SDS011;17580;50.850;4.504;2022-09-09T08:41:38;8.73;;;2.30;;
10191;SDS011;17580;50.850;4.504;2022-09-09T08:44:14;6.67;;;2.33;;
10191;SDS011;17580;50.850;4.504;2022-09-09T08:46:51;5.17;;;1.83;;
10191;SDS011;17580;50.850;4.504;2022-09-09T08:49:38;5.33;;;2.40;;
10191;SDS011;17580;50.850;4.504;2022-09-09T08:52:22;3.10;;;1.67;;
10191;SDS011;17580;50.850;4.504;2022-09-09T08:54:53;6.23;;;2.33;;
10191;SDS011;17580;50.850;4.504;2022-09-09T08:57:25;6.13;;;2.40;;
10191;SDS011;17580;50.850;4.504;2022-09-09T08:59:55;3.53;;;1.80;;
10191;SDS011;17580;50.850;4.504;2022-09-09T09:02:24;2.97;;;1.90;;
10191;SDS011;17580;50.850;4.504;2022-09-09T09:05:07;4.03;;;1.70;;
10191;SDS011;17580;50.850;4.504;2022-09-09T09:07:45;3.33;;;2.10;;
10191;SDS011;17580;50.850;4.504;2022-09-09T09:10:25;2.53;;;2.10;;
10191;SDS011;17580;50.850;4.504;2022-09-09T09:13:01;5.77;;;2.20;;
10191;SDS011;17580;50.850;4.504;2022-09-09T09:15:31;7.07;;;2.13;;
10191;SDS011;17580;50.850;4.504;2022-09-09T09:18:03;3.97;;;2.17;;
10191;SDS011;17580;50.850;4.504;2022-09-09T09:20:32;1.93;;;1.70;;
10191;SDS011;17580;50.850;4.504;2022-09-09T09:23:09;8.37;;;2.73;;
10191;SDS011;17580;50.850;4.504;2022-09-09T09:25:43;9.80;;;2.20;;
10191;SDS011;17580;50.850;4.504;2022-09-09T09:28:12;4.37;;;1.70;;
10191;SDS011;17580;50.850;4.504;2022-09-09T09:30:46;5.23;;;2.17;;
10191;SDS011;17580;50.850;4.504;2022-09-09T09:33:20;5.33;;;1.77;;
10191;SDS011;17580;50.850;4.504;2022-09-09T09:35:50;6.93;;;2.17;;
10191;SDS011;17580;50.850;4.504;2022-09-09T09:38:17;5.57;;;2.03;;
10191;SDS011;17580;50.850;4.504;2022-09-09T09:40:50;6.03;;;2.73;;
10191;SDS011;17580;50.850;4.504;2022-09-09T09:43:20;5.60;;;2.60;;
10191;SDS011;17580;50.850;4.504;2022-09-09T09:45:52;6.80;;;2.73;;
10191;SDS011;17580;50.850;4.504;2022-09-09T09:48:19;5.13;;;1.90;;
10191;SDS011;17580;50.850;4.504;2022-09-09T09:50:46;4.60;;;2.13;;
10191;SDS011;17580;50.850;4.504;2022-09-09T09:53:18;9.00;;;2.80;;
10191;SDS011;17580;50.850;4.504;2022-09-09T09:55:54;6.47;;;2.93;;
10191;SDS011;17580;50.850;4.504;2022-09-09T09:58:23;5.63;;;2.50;;
10191;SDS011;17580;50.850;4.504;2022-09-09T10:00:54;6.03;;;2.97;;
10191;SDS011;17580;50.850;4.504;2022-09-09T10:03:22;6.37;;;3.03;;
10191;SDS011;17580;50.850;4.504;2022-09-09T10:05:51;6.33;;;2.70;;
10191;SDS011;17580;50.850;4.504;2022-09-09T10:08:19;10.10;;;2.30;;
10191;SDS011;17580;50.850;4.504;2022-09-09T10:10:50;5.60;;;2.33;;
10191;SDS011;17580;50.850;4.504;2022-09-09T10:13:50;5.93;;;2.00;;
10191;SDS011;17580;50.850;4.504;2022-09-09T10:16:28;5.47;;;2.10;;
10191;SDS011;17580;50.850;4.504;2022-09-09T10:19:09;3.50;;;2.03;;
10191;SDS011;17580;50.850;4.504;2022-09-09T10:21:46;5.30;;;2.50;;
10191;SDS011;17580;50.850;4.504;2022-09-09T10:24:35;4.53;;;2.63;;
10191;SDS011;17580;50.850;4.504;2022-09-09T10:27:16;4.40;;;2.37;;
10191;SDS011;17580;50.850;4.504;2022-09-09T10:30:00;2.90;;;1.80;;
10191;SDS011;17580;50.850;4.504;2022-09-09T10:32:39;5.23;;;2.60;;
10191;SDS011;17580;50.850;4.504;2022-09-09T10:35:21;4.57;;;2.30;;
10191;SDS011;17580;50.850;4.504;2022-09-09T10:40:43;5.97;;;2.10;;
10191;SDS011;17580;50.850;4.504;2022-09-09T10:43:28;5.23;;;2.17;;
10191;SDS011;17580;50.850;4.504;2022-09-09T10:46:06;3.20;;;1.70;;
10191;SDS011;17580;50.850;4.504;2022-09-09T10:48:52;2.03;;;1.80;;
10191;SDS011;17580;50.850;4.504;2022-09-09T10:51:36;5.83;;;2.57;;
10191;SDS011;17580;50.850;4.504;2022-09-09T10:54:14;3.30;;;1.93;;
10191;SDS011;17580;50.850;4.504;2022-09-09T10:56:55;4.70;;;1.50;;
10191;SDS011;17580;50.850;4.504;2022-09-09T10:59:25;4.23;;;1.93;;
10191;SDS011;17580;50.850;4.504;2022-09-09T11:01:56;6.60;;;2.37;;
10191;SDS011;17580;50.850;4.504;2022-09-09T11:04:29;3.27;;;2.10;;
10191;SDS011;17580;50.850;4.504;2022-09-09T11:07:02;3.07;;;1.83;;
10191;SDS011;17580;50.850;4.504;2022-09-09T11:09:35;6.33;;;2.20;;
10191;SDS011;17580;50.850;4.504;2022-09-09T11:12:05;4.77;;;2.33;;
10191;SDS011;17580;50.850;4.504;2022-09-09T11:14:40;5.63;;;1.90;;
10191;SDS011;17580;50.850;4.504;2022-09-09T11:17:10;5.20;;;2.20;;
10191;SDS011;17580;50.850;4.504;2022-09-09T11:19:42;5.00;;;2.10;;
10191;SDS011;17580;50.850;4.504;2022-09-09T11:22:14;4.90;;;2.47;;
10191;SDS011;17580;50.850;4.504;2022-09-09T11:24:47;4.23;;;1.90;;
10191;SDS011;17580;50.850;4.504;2022-09-09T11:27:20;2.43;;;1.80;;
10191;SDS011;17580;50.850;4.504;2022-09-09T11:30:02;5.23;;;2.03;;
10191;SDS011;17580;50.850;4.504;2022-09-09T11:32:49;6.07;;;2.50;;
10191;SDS011;17580;50.850;4.504;2022-09-09T11:35:33;6.67;;;2.00;;
10191;SDS011;17580;50.850;4.504;2022-09-09T11:38:18;3.13;;;1.97;;
10191;SDS011;17580;50.850;4.504;2022-09-09T11:40:46;3.97;;;1.93;;
10191;SDS011;17580;50.850;4.504;2022-09-09T11:43:21;4.03;;;2.10;;
10191;SDS011;17580;50.850;4.504;2022-09-09T11:45:52;4.80;;;2.10;;
10191;SDS011;17580;50.850;4.504;2022-09-09T11:48:23;2.77;;;1.67;;
10191;SDS011;17580;50.850;4.504;2022-09-09T11:50:59;2.57;;;1.67;;
10191;SDS011;17580;50.850;4.504;2022-09-09T11:53:28;5.73;;;1.90;;
10191;SDS011;17580;50.850;4.504;2022-09-09T11:56:09;5.23;;;1.97;;
10191;SDS011;17580;50.850;4.504;2022-09-09T11:58:39;4.80;;;1.70;;
10191;SDS011;17580;50.850;4.504;2022-09-09T12:01:14;2.20;;;1.83;;
10191;SDS011;17580;50.850;4.504;2022-09-09T12:03:43;2.87;;;1.43;;
10191;SDS011;17580;50.850;4.504;2022-09-09T12:06:15;5.37;;;1.80;;
10191;SDS011;17580;50.850;4.504;2022-09-09T12:08:46;2.70;;;1.67;;
10191;SDS011;17580;50.850;4.504;2022-09-09T12:11:24;3.20;;;1.70;;
10191;SDS011;17580;50.850;4.504;2022-09-09T12:13:52;6.37;;;2.43;;
10191;SDS011;17580;50.850;4.504;2022-09-09T12:16:27;3.73;;;1.57;;
10191;SDS011;17580;50.850;4.504;2022-09-09T12:19:05;2.13;;;1.50;;
10191;SDS011;17580;50.850;4.504;2022-09-09T12:21:43;1.30;;;1.13;;
10191;SDS011;17580;50.850;4.504;2022-09-09T12:24:15;1.53;;;1.40;;
10191;SDS011;17580;50.850;4.504;2022-09-09T12:26:49;2.50;;;1.50;;
10191;SDS011;17580;50.850;4.504;2022-09-09T12:29:24;3.00;;;1.77;;
10191;SDS011;17580;50.850;4.504;2022-09-09T12:31:56;4.43;;;1.93;;
10191;SDS011;17580;50.850;4.504;2022-09-09T12:34:31;4.73;;;2.10;;
10191;SDS011;17580;50.850;4.504;2022-09-09T12:37:06;4.83;;;1.87;;
10191;SDS011;17580;50.850;4.504;2022-09-09T12:39:42;3.93;;;1.73;;
10191;SDS011;17580;50.850;4.504;2022-09-09T12:42:18;1.83;;;1.30;;
10191;SDS011;17580;50.850;4.504;2022-09-09T12:44:55;3.90;;;1.70;;
10191;SDS011;17580;50.850;4.504;2022-09-09T12:47:25;4.50;;;2.00;;
10191;SDS011;17580;50.850;4.504;2022-09-09T12:50:01;3.27;;;1.70;;
10191;SDS011;17580;50.850;4.504;2022-09-09T12:52:31;3.93;;;2.17;;
10191;SDS011;17580;50.850;4.504;2022-09-09T12:55:03;3.30;;;1.90;;
10191;SDS011;17580;50.850;4.504;2022-09-09T12:57:34;2.73;;;1.50;;
10191;SDS011;17580;50.850;4.504;2022-09-09T13:00:05;1.93;;;1.47;;
10191;SDS011;17580;50.850;4.504;2022-09-09T13:02:36;3.23;;;1.63;;
10191;SDS011;17580;50.850;4.504;2022-09-09T13:05:13;2.77;;;1.57;;
10191;SDS011;17580;50.850;4.504;2022-09-09T13:07:44;4.50;;;1.57;;
10191;SDS011;17580;50.850;4.504;2022-09-09T13:10:12;3.30;;;1.70;;
10191;SDS011;17580;50.850;4.504;2022-09-09T13:12:40;2.83;;;1.40;;
10191;SDS011;17580;50.850;4.504;2022-09-09T13:15:12;3.13;;;1.50;;
10191;SDS011;17580;50.850;4.504;2022-09-09T13:17:49;4.17;;;1.30;;
10191;SDS011;17580;50.850;4.504;2022-09-09T13:20:18;1.87;;;1.30;;
10191;SDS011;17580;50.850;4.504;2022-09-09T13:22:48;2.30;;;1.43;;
10191;SDS011;17580;50.850;4.504;2022-09-09T13:25:18;2.27;;;1.37;;
10191;SDS011;17580;50.850;4.504;2022-09-09T13:27:55;1.93;;;1.33;;
10191;SDS011;17580;50.850;4.504;2022-09-09T13:30:25;1.67;;;1.30;;
10191;SDS011;17580;50.850;4.504;2022-09-09T13:33:01;3.63;;;1.67;;
10191;SDS011;17580;50.850;4.504;2022-09-09T13:35:29;5.90;;;1.80;;
10191;SDS011;17580;50.850;4.504;2022-09-09T13:37:58;1.63;;;1.40;;
10191;SDS011;17580;50.850;4.504;2022-09-09T13:40:26;2.33;;;1.47;;
10191;SDS011;17580;50.850;4.504;2022-09-09T13:42:54;2.07;;;1.20;;
10191;SDS011;17580;50.850;4.504;2022-09-09T13:45:22;1.57;;;1.17;;
10191;SDS011;17580;50.850;4.504;2022-09-09T13:47:51;2.13;;;1.10;;
10191;SDS011;17580;50.850;4.504;2022-09-09T13:50:20;2.10;;;1.10;;
10191;SDS011;17580;50.850;4.504;2022-09-09T13:52:49;1.43;;;1.30;;
10191;SDS011;17580;50.850;4.504;2022-09-09T13:55:20;1.00;;;1.00;;
10191;SDS011;17580;50.850;4.504;2022-09-09T13:57:52;1.80;;;1.30;;
10191;SDS011;17580;50.850;4.504;2022-09-09T14:00:20;1.37;;;1.13;;
10191;SDS011;17580;50.850;4.504;2022-09-09T14:02:49;1.83;;;1.40;;
10191;SDS011;17580;50.850;4.504;2022-09-09T14:05:18;2.17;;;1.50;;
10191;SDS011;17580;50.850;4.504;2022-09-09T14:07:45;2.10;;;1.50;;
10191;SDS011;17580;50.850;4.504;2022-09-09T14:10:12;1.67;;;1.30;;
10191;SDS011;17580;50.850;4.504;2022-09-09T14:12:41;1.70;;;1.30;;
10191;SDS011;17580;50.850;4.504;2022-09-09T14:15:09;2.03;;;1.50;;
10191;SDS011;17580;50.850;4.504;2022-09-09T14:17:38;2.77;;;1.43;;
10191;SDS011;17580;50.850;4.504;2022-09-09T14:20:05;1.23;;;1.10;;
10191;SDS011;17580;50.850;4.504;2022-09-09T14:22:34;1.43;;;1.30;;
10191;SDS011;17580;50.850;4.504;2022-09-09T14:25:01;3.63;;;1.77;;
10191;SDS011;17580;50.850;4.504;2022-09-09T14:27:28;4.57;;;1.50;;
10191;SDS011;17580;50.850;4.504;2022-09-09T14:29:56;2.20;;;1.57;;
10191;SDS011;17580;50.850;4.504;2022-09-09T14:32:25;4.33;;;1.40;;
10191;SDS011;17580;50.850;4.504;2022-09-09T14:34:52;3.87;;;1.90;;
10191;SDS011;17580;50.850;4.504;2022-09-09T14:37:19;5.13;;;1.63;;
10191;SDS011;17580;50.850;4.504;2022-09-09T14:39:46;3.00;;;1.40;;
10191;SDS011;17580;50.850;4.504;2022-09-09T14:42:15;5.37;;;2.27;;
10191;SDS011;17580;50.850;4.504;2022-09-09T14:44:42;1.40;;;1.27;;
10191;SDS011;17580;50.850;4.504;2022-09-09T14:47:10;2.93;;;1.63;;
10191;SDS011;17580;50.850;4.504;2022-09-09T14:49:37;2.17;;;1.40;;
10191;SDS011;17580;50.850;4.504;2022-09-09T14:52:04;4.43;;;1.60;;
10191;SDS011;17580;50.850;4.504;2022-09-09T14:54:31;4.07;;;1.60;;
10191;SDS011;17580;50.850;4.504;2022-09-09T14:56:58;4.40;;;1.93;;
10191;SDS011;17580;50.850;4.504;2022-09-09T14:59:25;3.30;;;1.63;;
10191;SDS011;17580;50.850;4.504;2022-09-09T15:01:52;3.70;;;1.63;;
10191;SDS011;17580;50.850;4.504;2022-09-09T15:04:21;2.37;;;1.70;;
10191;SDS011;17580;50.850;4.504;2022-09-09T15:06:48;2.20;;;1.50;;
10191;SDS011;17580;50.850;4.504;2022-09-09T15:09:17;2.23;;;1.40;;
10191;SDS011;17580;50.850;4.504;2022-09-09T15:11:44;2.33;;;1.40;;
10191;SDS011;17580;50.850;4.504;2022-09-09T15:14:11;3.43;;;1.50;;
10191;SDS011;17580;50.850;4.504;2022-09-09T15:16:38;1.77;;;1.30;;